createdAt,value
2018-02-12T00:00:05.317Z,6.6
2018-02-12T00:15:04.782Z,6.5
2018-02-12T00:30:05.168Z,6.4
2018-02-12T00:45:05.118Z,6.4
2018-02-12T01:00:05.207Z,6.3
2018-02-12T01:15:05.270Z,6.4
2018-02-12T01:30:04.473Z,6.4
2018-02-12T01:45:04.827Z,6.4
2018-02-12T02:00:05.246Z,6.4
2018-02-12T02:15:05.462Z,6.3
2018-02-12T02:30:04.764Z,6
2018-02-12T02:45:05.047Z,5.7
2018-02-12T03:00:04.902Z,5.6
2018-02-12T03:15:05.194Z,5.7
2018-02-12T03:30:04.679Z,5.8
2018-02-12T03:45:08.125Z,5.7
2018-02-12T04:00:06.024Z,5.6
2018-02-12T04:15:04.994Z,5.5
2018-02-12T04:30:04.676Z,5.6
2018-02-12T04:45:05.209Z,5.6
2018-02-12T05:00:04.641Z,5.5
2018-02-12T05:15:05.347Z,5.7
2018-02-12T05:30:05.443Z,5.6
2018-02-12T05:45:04.953Z,5.7
2018-02-12T06:00:04.396Z,5.7
2018-02-12T06:15:04.820Z,5.7
2018-02-12T06:30:05.224Z,5.7
2018-02-12T06:45:05.659Z,5.9
2018-02-12T07:00:05.116Z,5.8
2018-02-12T07:15:04.761Z,5.8
2018-02-12T07:30:04.409Z,6.1
2018-02-12T07:45:04.351Z,6
2018-02-12T08:00:05.813Z,6.1
2018-02-12T08:15:05.760Z,6
2018-02-12T08:30:04.376Z,6.2
2018-02-12T08:45:05.307Z,6.1
2018-02-12T09:00:04.703Z,6.3
2018-02-12T09:15:05.078Z,6.3
2018-02-12T09:30:04.282Z,6.7
2018-02-12T09:45:04.733Z,6.6
2018-02-12T10:00:04.169Z,7.6
2018-02-12T10:15:05.088Z,7.6
2018-02-12T10:30:04.233Z,7.6
2018-02-12T10:45:04.275Z,7.5
2018-02-12T11:00:05.158Z,7.2
2018-02-12T11:15:05.023Z,7.2
2018-02-12T11:30:05.158Z,7.1
2018-02-12T11:45:04.644Z,7.8
2018-02-12T12:00:04.519Z,8
2018-02-12T12:15:04.501Z,7.8
2018-02-12T12:30:04.591Z,7.8
2018-02-12T12:45:04.555Z,7.2
2018-02-12T13:00:05.068Z,6.7
2018-02-12T13:15:04.895Z,7.1
2018-02-12T13:30:04.997Z,7.2
2018-02-12T13:45:04.945Z,6.9
2018-02-12T14:00:04.409Z,6.9
2018-02-12T14:15:04.775Z,6.9
2018-02-12T14:30:04.913Z,6.5
2018-02-12T14:45:04.799Z,6.2
2018-02-12T15:00:04.727Z,6.3
2018-02-12T15:15:07.734Z,6
2018-02-12T15:30:04.848Z,6.1
2018-02-12T15:45:04.842Z,6.2
2018-02-12T16:00:04.757Z,6.3
2018-02-12T16:15:04.616Z,6.4
2018-02-12T16:30:14.969Z,6
2018-02-12T16:45:04.909Z,5.4
2018-02-12T17:00:04.339Z,4.7
2018-02-12T17:15:04.730Z,5
2018-02-12T17:30:05.030Z,5.2
2018-02-12T17:45:05.135Z,5.2
2018-02-12T18:00:04.329Z,4.7
2018-02-12T18:15:05.032Z,4.7
2018-02-12T18:30:05.455Z,4.5
2018-02-12T18:45:04.875Z,4.4
2018-02-12T19:00:05.138Z,4.5
2018-02-12T19:15:04.581Z,4.6
2018-02-12T19:30:04.189Z,4.6
2018-02-12T19:45:04.668Z,4.3
2018-02-12T20:00:05.167Z,4.5
2018-02-12T20:15:04.618Z,4.3
2018-02-12T20:30:06.083Z,4.3
2018-02-12T20:45:04.659Z,4.2
2018-02-12T21:00:05.350Z,4.3
2018-02-12T21:15:20.168Z,4.2
2018-02-12T21:30:07.932Z,4.2
2018-02-12T21:45:05.905Z,4
2018-02-12T22:00:04.388Z,4
2018-02-12T22:15:04.927Z,3.8
2018-02-12T22:30:04.582Z,3.9
2018-02-12T22:45:05.157Z,4.2
2018-02-12T23:00:05.211Z,4.1
2018-02-12T23:15:05.043Z,4
2018-02-12T23:30:04.765Z,4
2018-02-12T23:45:05.193Z,3.8
